Parc La Dolores, Puerto Rico
Current Conditions -  °F | °C
As of 3:56 PM on Tuesday 21 Oct 2014 (Local Time) from TJSJ Reporting Station
Scattered Clouds Scattered Clouds  
Wind Chill: 86°   Ceiling: Unl
Heat Index: 96°   Visibility: 10mi
Dew Point: 76°   Wind: 15mph
Humidity: 72%   Direction: 70°ENE
Pressure: 29.89"   Gusts: NA
Location:  18.3817°N, 65.8302°W
Report Text: TJSJ 211956Z 07013KT 10SM FEW031 SCT070 SCT110 30/24 A2989 RMK AO2 SLP121 T03000244
Loading
Personal Weather Stations






























Interactive Weather Map
Tropical Storm Tracking
New forecast layout! Learn more

10-Day Weather Forecast

Advertisements
Track Severe Weather on mobile